sensor_id;sensor_type;location;lat;lon;timestamp;P1;durP1;ratioP1;P2;durP2;ratioP2
52480;SDS011;38393;52.404;13.532;2023-05-29T00:00:31;8.80;;;3.10;;
52480;SDS011;38393;52.404;13.532;2023-05-29T00:02:56;12.77;;;3.20;;
52480;SDS011;38393;52.404;13.532;2023-05-29T00:05:22;7.97;;;3.43;;
52480;SDS011;38393;52.404;13.532;2023-05-29T00:07:47;6.60;;;3.43;;
52480;SDS011;38393;52.404;13.532;2023-05-29T00:10:15;7.03;;;3.30;;
52480;SDS011;38393;52.404;13.532;2023-05-29T00:12:41;8.80;;;3.17;;
52480;SDS011;38393;52.404;13.532;2023-05-29T00:15:06;8.37;;;3.47;;
52480;SDS011;38393;52.404;13.532;2023-05-29T00:17:33;7.43;;;3.13;;
52480;SDS011;38393;52.404;13.532;2023-05-29T00:19:59;6.50;;;3.27;;
52480;SDS011;38393;52.404;13.532;2023-05-29T00:22:26;7.40;;;3.10;;
52480;SDS011;38393;52.404;13.532;2023-05-29T00:24:52;6.67;;;3.10;;
52480;SDS011;38393;52.404;13.532;2023-05-29T00:27:17;8.43;;;3.37;;
52480;SDS011;38393;52.404;13.532;2023-05-29T00:29:43;8.53;;;3.07;;
52480;SDS011;38393;52.404;13.532;2023-05-29T00:32:09;7.40;;;3.10;;
52480;SDS011;38393;52.404;13.532;2023-05-29T00:34:34;7.77;;;3.40;;
52480;SDS011;38393;52.404;13.532;2023-05-29T00:37:00;8.97;;;2.97;;
52480;SDS011;38393;52.404;13.532;2023-05-29T00:39:26;9.37;;;3.20;;
52480;SDS011;38393;52.404;13.532;2023-05-29T00:41:52;7.27;;;3.07;;
52480;SDS011;38393;52.404;13.532;2023-05-29T00:44:18;8.60;;;3.00;;
52480;SDS011;38393;52.404;13.532;2023-05-29T00:46:45;9.57;;;3.40;;
52480;SDS011;38393;52.404;13.532;2023-05-29T00:49:11;9.63;;;3.37;;
52480;SDS011;38393;52.404;13.532;2023-05-29T00:51:38;8.43;;;3.63;;
52480;SDS011;38393;52.404;13.532;2023-05-29T00:54:06;8.07;;;3.30;;
52480;SDS011;38393;52.404;13.532;2023-05-29T00:56:33;7.60;;;3.20;;
52480;SDS011;38393;52.404;13.532;2023-05-29T00:59:00;7.57;;;3.00;;
52480;SDS011;38393;52.404;13.532;2023-05-29T01:01:26;8.33;;;3.73;;
52480;SDS011;38393;52.404;13.532;2023-05-29T01:03:53;9.23;;;3.33;;
52480;SDS011;38393;52.404;13.532;2023-05-29T01:06:22;11.30;;;3.40;;
52480;SDS011;38393;52.404;13.532;2023-05-29T01:08:48;8.17;;;3.53;;
52480;SDS011;38393;52.404;13.532;2023-05-29T01:13:49;10.10;;;3.73;;
52480;SDS011;38393;52.404;13.532;2023-05-29T01:16:26;7.50;;;3.40;;
52480;SDS011;38393;52.404;13.532;2023-05-29T01:19:05;9.30;;;3.07;;
52480;SDS011;38393;52.404;13.532;2023-05-29T01:27:44;6.90;;;3.50;;
52480;SDS011;38393;52.404;13.532;2023-05-29T01:30:12;6.73;;;3.20;;
52480;SDS011;38393;52.404;13.532;2023-05-29T01:32:40;7.90;;;3.47;;
52480;SDS011;38393;52.404;13.532;2023-05-29T01:35:06;8.33;;;3.20;;
52480;SDS011;38393;52.404;13.532;2023-05-29T01:37:33;12.73;;;3.63;;
52480;SDS011;38393;52.404;13.532;2023-05-29T01:39:58;5.67;;;3.37;;
52480;SDS011;38393;52.404;13.532;2023-05-29T01:42:24;7.23;;;3.20;;
52480;SDS011;38393;52.404;13.532;2023-05-29T01:44:51;8.13;;;3.10;;
52480;SDS011;38393;52.404;13.532;2023-05-29T01:47:17;7.10;;;3.17;;
52480;SDS011;38393;52.404;13.532;2023-05-29T01:49:42;8.60;;;3.30;;
52480;SDS011;38393;52.404;13.532;2023-05-29T01:52:10;6.53;;;3.47;;
52480;SDS011;38393;52.404;13.532;2023-05-29T01:54:36;9.13;;;3.27;;
52480;SDS011;38393;52.404;13.532;2023-05-29T01:57:01;7.83;;;3.80;;
52480;SDS011;38393;52.404;13.532;2023-05-29T01:59:27;7.90;;;3.43;;
52480;SDS011;38393;52.404;13.532;2023-05-29T02:01:53;7.87;;;3.27;;
52480;SDS011;38393;52.404;13.532;2023-05-29T02:04:19;8.73;;;3.47;;
52480;SDS011;38393;52.404;13.532;2023-05-29T02:06:44;7.10;;;3.20;;
52480;SDS011;38393;52.404;13.532;2023-05-29T02:09:10;8.00;;;3.23;;
52480;SDS011;38393;52.404;13.532;2023-05-29T02:11:35;7.97;;;3.50;;
52480;SDS011;38393;52.404;13.532;2023-05-29T02:14:01;9.93;;;3.50;;
52480;SDS011;38393;52.404;13.532;2023-05-29T02:16:28;6.90;;;3.13;;
52480;SDS011;38393;52.404;13.532;2023-05-29T02:18:53;8.43;;;3.67;;
52480;SDS011;38393;52.404;13.532;2023-05-29T02:21:19;10.30;;;3.17;;
52480;SDS011;38393;52.404;13.532;2023-05-29T02:23:44;7.37;;;3.17;;
52480;SDS011;38393;52.404;13.532;2023-05-29T02:26:11;9.37;;;3.30;;
52480;SDS011;38393;52.404;13.532;2023-05-29T02:28:37;8.30;;;3.53;;
52480;SDS011;38393;52.404;13.532;2023-05-29T02:31:02;7.37;;;3.30;;
52480;SDS011;38393;52.404;13.532;2023-05-29T02:33:28;8.63;;;3.57;;
52480;SDS011;38393;52.404;13.532;2023-05-29T02:35:54;7.63;;;3.30;;
52480;SDS011;38393;52.404;13.532;2023-05-29T02:38:20;9.27;;;3.30;;
52480;SDS011;38393;52.404;13.532;2023-05-29T02:40:45;6.57;;;2.70;;
52480;SDS011;38393;52.404;13.532;2023-05-29T02:43:12;7.97;;;3.17;;
52480;SDS011;38393;52.404;13.532;2023-05-29T02:45:38;5.97;;;3.10;;
52480;SDS011;38393;52.404;13.532;2023-05-29T02:48:04;8.87;;;3.20;;
52480;SDS011;38393;52.404;13.532;2023-05-29T02:50:30;6.20;;;2.97;;
52480;SDS011;38393;52.404;13.532;2023-05-29T02:52:55;7.07;;;3.07;;
52480;SDS011;38393;52.404;13.532;2023-05-29T02:55:21;9.07;;;3.40;;
52480;SDS011;38393;52.404;13.532;2023-05-29T02:57:46;6.30;;;2.70;;
52480;SDS011;38393;52.404;13.532;2023-05-29T03:00:13;5.73;;;2.77;;
52480;SDS011;38393;52.404;13.532;2023-05-29T03:02:39;6.60;;;3.10;;
52480;SDS011;38393;52.404;13.532;2023-05-29T03:05:05;6.70;;;3.13;;
52480;SDS011;38393;52.404;13.532;2023-05-29T03:07:31;8.37;;;3.13;;
52480;SDS011;38393;52.404;13.532;2023-05-29T03:09:56;6.73;;;2.93;;
52480;SDS011;38393;52.404;13.532;2023-05-29T03:12:22;6.50;;;3.03;;
52480;SDS011;38393;52.404;13.532;2023-05-29T03:14:48;8.53;;;2.97;;
52480;SDS011;38393;52.404;13.532;2023-05-29T03:17:13;15.33;;;3.30;;
52480;SDS011;38393;52.404;13.532;2023-05-29T03:19:39;5.47;;;2.90;;
52480;SDS011;38393;52.404;13.532;2023-05-29T03:22:04;5.70;;;3.00;;
52480;SDS011;38393;52.404;13.532;2023-05-29T03:24:30;6.40;;;2.90;;
52480;SDS011;38393;52.404;13.532;2023-05-29T03:26:55;7.07;;;3.23;;
52480;SDS011;38393;52.404;13.532;2023-05-29T03:29:21;9.10;;;2.90;;
52480;SDS011;38393;52.404;13.532;2023-05-29T03:31:47;8.43;;;3.20;;
52480;SDS011;38393;52.404;13.532;2023-05-29T03:34:12;7.93;;;3.20;;
52480;SDS011;38393;52.404;13.532;2023-05-29T03:36:38;5.50;;;3.00;;
52480;SDS011;38393;52.404;13.532;2023-05-29T03:39:04;5.73;;;2.87;;
52480;SDS011;38393;52.404;13.532;2023-05-29T03:41:29;7.17;;;3.00;;
52480;SDS011;38393;52.404;13.532;2023-05-29T03:43:55;6.20;;;3.00;;
52480;SDS011;38393;52.404;13.532;2023-05-29T03:46:20;6.73;;;3.20;;
52480;SDS011;38393;52.404;13.532;2023-05-29T03:48:46;8.17;;;3.30;;
52480;SDS011;38393;52.404;13.532;2023-05-29T03:51:11;11.63;;;3.63;;
52480;SDS011;38393;52.404;13.532;2023-05-29T03:53:37;6.00;;;2.90;;
52480;SDS011;38393;52.404;13.532;2023-05-29T03:56:02;9.37;;;3.23;;
52480;SDS011;38393;52.404;13.532;2023-05-29T03:58:28;5.50;;;3.13;;
52480;SDS011;38393;52.404;13.532;2023-05-29T04:00:53;7.33;;;3.00;;
52480;SDS011;38393;52.404;13.532;2023-05-29T04:03:19;6.77;;;3.07;;
52480;SDS011;38393;52.404;13.532;2023-05-29T04:05:44;9.57;;;3.03;;
52480;SDS011;38393;52.404;13.532;2023-05-29T04:08:10;8.50;;;2.80;;
52480;SDS011;38393;52.404;13.532;2023-05-29T04:10:38;8.03;;;2.93;;
52480;SDS011;38393;52.404;13.532;2023-05-29T04:13:04;5.70;;;2.80;;
52480;SDS011;38393;52.404;13.532;2023-05-29T04:15:29;7.20;;;3.03;;
52480;SDS011;38393;52.404;13.532;2023-05-29T04:17:55;7.50;;;3.03;;
52480;SDS011;38393;52.404;13.532;2023-05-29T04:20:20;6.47;;;2.90;;
52480;SDS011;38393;52.404;13.532;2023-05-29T04:22:46;8.13;;;2.90;;
52480;SDS011;38393;52.404;13.532;2023-05-29T04:25:11;6.93;;;3.17;;
52480;SDS011;38393;52.404;13.532;2023-05-29T04:27:37;6.47;;;2.70;;
52480;SDS011;38393;52.404;13.532;2023-05-29T04:30:04;5.63;;;2.87;;
52480;SDS011;38393;52.404;13.532;2023-05-29T04:32:30;6.13;;;2.53;;
52480;SDS011;38393;52.404;13.532;2023-05-29T04:34:55;9.07;;;3.10;;
52480;SDS011;38393;52.404;13.532;2023-05-29T04:37:21;6.73;;;2.83;;
52480;SDS011;38393;52.404;13.532;2023-05-29T04:39:53;9.27;;;3.00;;
52480;SDS011;38393;52.404;13.532;2023-05-29T04:42:19;6.77;;;2.57;;
52480;SDS011;38393;52.404;13.532;2023-05-29T04:44:45;5.13;;;2.70;;
52480;SDS011;38393;52.404;13.532;2023-05-29T04:47:11;6.63;;;2.70;;
52480;SDS011;38393;52.404;13.532;2023-05-29T04:49:39;4.67;;;2.33;;
52480;SDS011;38393;52.404;13.532;2023-05-29T04:52:05;6.57;;;2.90;;
52480;SDS011;38393;52.404;13.532;2023-05-29T04:54:30;6.23;;;2.87;;
52480;SDS011;38393;52.404;13.532;2023-05-29T04:56:56;4.73;;;2.43;;
52480;SDS011;38393;52.404;13.532;2023-05-29T04:59:21;4.37;;;2.40;;
52480;SDS011;38393;52.404;13.532;2023-05-29T05:01:47;5.20;;;2.13;;
52480;SDS011;38393;52.404;13.532;2023-05-29T05:04:13;8.27;;;2.83;;
52480;SDS011;38393;52.404;13.532;2023-05-29T05:06:38;6.20;;;2.80;;
52480;SDS011;38393;52.404;13.532;2023-05-29T05:09:04;5.60;;;2.17;;
52480;SDS011;38393;52.404;13.532;2023-05-29T05:11:29;6.63;;;2.47;;
52480;SDS011;38393;52.404;13.532;2023-05-29T05:13:55;7.57;;;2.47;;
52480;SDS011;38393;52.404;13.532;2023-05-29T05:16:20;5.13;;;2.27;;
52480;SDS011;38393;52.404;13.532;2023-05-29T05:18:46;4.93;;;2.20;;
52480;SDS011;38393;52.404;13.532;2023-05-29T05:21:11;3.83;;;1.93;;
52480;SDS011;38393;52.404;13.532;2023-05-29T05:23:36;4.07;;;2.30;;
52480;SDS011;38393;52.404;13.532;2023-05-29T05:26:02;3.73;;;2.27;;
52480;SDS011;38393;52.404;13.532;2023-05-29T05:28:28;4.33;;;2.20;;
52480;SDS011;38393;52.404;13.532;2023-05-29T05:30:53;4.90;;;1.97;;
52480;SDS011;38393;52.404;13.532;2023-05-29T05:33:19;5.03;;;2.40;;
52480;SDS011;38393;52.404;13.532;2023-05-29T05:35:44;4.40;;;2.30;;
52480;SDS011;38393;52.404;13.532;2023-05-29T05:38:10;4.47;;;2.40;;
52480;SDS011;38393;52.404;13.532;2023-05-29T05:40:36;4.77;;;2.33;;
52480;SDS011;38393;52.404;13.532;2023-05-29T05:43:01;4.87;;;2.10;;
52480;SDS011;38393;52.404;13.532;2023-05-29T05:45:27;5.57;;;2.17;;
52480;SDS011;38393;52.404;13.532;2023-05-29T05:47:52;6.23;;;2.40;;
52480;SDS011;38393;52.404;13.532;2023-05-29T05:50:18;6.37;;;2.07;;
52480;SDS011;38393;52.404;13.532;2023-05-29T05:52:43;4.23;;;1.93;;
52480;SDS011;38393;52.404;13.532;2023-05-29T05:55:08;4.70;;;1.90;;
52480;SDS011;38393;52.404;13.532;2023-05-29T05:57:34;4.50;;;1.60;;
52480;SDS011;38393;52.404;13.532;2023-05-29T06:00:01;3.22;;;1.80;;
52480;SDS011;38393;52.404;13.532;2023-05-29T06:02:36;3.63;;;1.77;;
52480;SDS011;38393;52.404;13.532;2023-05-29T06:05:01;3.78;;;2.00;;
52480;SDS011;38393;52.404;13.532;2023-05-29T06:07:28;3.22;;;1.70;;
52480;SDS011;38393;52.404;13.532;2023-05-29T06:09:54;3.13;;;1.60;;
52480;SDS011;38393;52.404;13.532;2023-05-29T06:12:19;2.88;;;1.67;;
52480;SDS011;38393;52.404;13.532;2023-05-29T06:14:45;3.78;;;1.67;;
52480;SDS011;38393;52.404;13.532;2023-05-29T06:17:10;3.90;;;1.73;;
52480;SDS011;38393;52.404;13.532;2023-05-29T06:19:36;2.53;;;1.33;;
52480;SDS011;38393;52.404;13.532;2023-05-29T06:22:02;2.08;;;1.40;;
52480;SDS011;38393;52.404;13.532;2023-05-29T06:24:27;3.03;;;1.50;;
52480;SDS011;38393;52.404;13.532;2023-05-29T06:26:53;2.17;;;1.60;;
52480;SDS011;38393;52.404;13.532;2023-05-29T06:29:18;2.63;;;1.77;;
52480;SDS011;38393;52.404;13.532;2023-05-29T06:31:44;2.15;;;1.38;;
52480;SDS011;38393;52.404;13.532;2023-05-29T06:34:10;3.00;;;1.67;;
52480;SDS011;38393;52.404;13.532;2023-05-29T06:36:35;2.13;;;1.50;;
52480;SDS011;38393;52.404;13.532;2023-05-29T06:39:01;3.00;;;1.65;;
52480;SDS011;38393;52.404;13.532;2023-05-29T06:41:26;2.88;;;1.70;;
52480;SDS011;38393;52.404;13.532;2023-05-29T06:43:52;2.25;;;1.50;;
52480;SDS011;38393;52.404;13.532;2023-05-29T06:46:17;4.13;;;1.77;;
52480;SDS011;38393;52.404;13.532;2023-05-29T06:48:43;2.08;;;1.55;;
52480;SDS011;38393;52.404;13.532;2023-05-29T06:51:08;4.43;;;1.42;;
52480;SDS011;38393;52.404;13.532;2023-05-29T06:53:39;4.32;;;1.73;;
52480;SDS011;38393;52.404;13.532;2023-05-29T06:56:05;2.60;;;1.60;;
52480;SDS011;38393;52.404;13.532;2023-05-29T06:58:31;2.63;;;1.67;;
52480;SDS011;38393;52.404;13.532;2023-05-29T07:00:58;5.38;;;2.20;;
52480;SDS011;38393;52.404;13.532;2023-05-29T07:03:24;2.53;;;1.63;;
52480;SDS011;38393;52.404;13.532;2023-05-29T07:05:51;2.15;;;1.30;;
52480;SDS011;38393;52.404;13.532;2023-05-29T07:08:16;2.25;;;1.50;;
52480;SDS011;38393;52.404;13.532;2023-05-29T07:10:42;6.97;;;1.73;;
52480;SDS011;38393;52.404;13.532;2023-05-29T07:13:07;5.88;;;1.70;;
52480;SDS011;38393;52.404;13.532;2023-05-29T07:15:33;5.40;;;1.55;;
52480;SDS011;38393;52.404;13.532;2023-05-29T07:17:59;2.55;;;1.50;;
52480;SDS011;38393;52.404;13.532;2023-05-29T07:20:24;3.90;;;1.63;;
52480;SDS011;38393;52.404;13.532;2023-05-29T07:22:50;3.20;;;1.58;;
52480;SDS011;38393;52.404;13.532;2023-05-29T07:25:15;3.97;;;1.33;;
52480;SDS011;38393;52.404;13.532;2023-05-29T07:27:41;5.20;;;1.73;;
52480;SDS011;38393;52.404;13.532;2023-05-29T07:30:06;2.55;;;1.50;;
52480;SDS011;38393;52.404;13.532;2023-05-29T07:32:32;1.73;;;1.30;;
52480;SDS011;38393;52.404;13.532;2023-05-29T07:34:58;6.57;;;1.80;;
52480;SDS011;38393;52.404;13.532;2023-05-29T07:37:23;3.00;;;1.70;;
52480;SDS011;38393;52.404;13.532;2023-05-29T07:39:49;3.88;;;1.85;;
52480;SDS011;38393;52.404;13.532;2023-05-29T07:42:14;3.13;;;1.83;;
52480;SDS011;38393;52.404;13.532;2023-05-29T07:44:40;2.35;;;1.40;;
52480;SDS011;38393;52.404;13.532;2023-05-29T07:47:09;3.40;;;1.70;;
52480;SDS011;38393;52.404;13.532;2023-05-29T07:49:35;3.20;;;1.77;;
52480;SDS011;38393;52.404;13.532;2023-05-29T07:52:01;2.97;;;1.67;;
52480;SDS011;38393;52.404;13.532;2023-05-29T07:54:27;3.55;;;1.60;;
52480;SDS011;38393;52.404;13.532;2023-05-29T07:56:53;3.22;;;1.52;;
52480;SDS011;38393;52.404;13.532;2023-05-29T07:59:19;2.13;;;1.52;;
52480;SDS011;38393;52.404;13.532;2023-05-29T08:01:44;2.55;;;1.48;;
52480;SDS011;38393;52.404;13.532;2023-05-29T08:04:10;2.25;;;1.60;;
52480;SDS011;38393;52.404;13.532;2023-05-29T08:06:36;2.80;;;1.45;;
52480;SDS011;38393;52.404;13.532;2023-05-29T08:09:02;5.00;;;1.65;;
52480;SDS011;38393;52.404;13.532;2023-05-29T08:11:28;2.85;;;1.40;;
52480;SDS011;38393;52.404;13.532;2023-05-29T08:13:54;3.28;;;1.75;;
52480;SDS011;38393;52.404;13.532;2023-05-29T08:16:19;2.53;;;1.70;;
52480;SDS011;38393;52.404;13.532;2023-05-29T08:18:47;3.55;;;1.80;;
52480;SDS011;38393;52.404;13.532;2023-05-29T08:21:12;3.90;;;2.00;;
52480;SDS011;38393;52.404;13.532;2023-05-29T08:23:38;2.38;;;1.55;;
52480;SDS011;38393;52.404;13.532;2023-05-29T08:26:03;4.10;;;1.90;;
52480;SDS011;38393;52.404;13.532;2023-05-29T08:28:29;4.47;;;1.98;;
52480;SDS011;38393;52.404;13.532;2023-05-29T08:30:55;3.30;;;1.85;;
52480;SDS011;38393;52.404;13.532;2023-05-29T08:33:20;3.63;;;1.90;;
52480;SDS011;38393;52.404;13.532;2023-05-29T08:35:45;3.30;;;1.90;;
52480;SDS011;38393;52.404;13.532;2023-05-29T08:38:11;3.10;;;1.75;;
52480;SDS011;38393;52.404;13.532;2023-05-29T08:40:36;4.32;;;1.55;;
52480;SDS011;38393;52.404;13.532;2023-05-29T08:43:02;4.35;;;1.70;;
52480;SDS011;38393;52.404;13.532;2023-05-29T08:45:36;3.22;;;1.70;;
52480;SDS011;38393;52.404;13.532;2023-05-29T08:48:07;2.80;;;1.63;;
52480;SDS011;38393;52.404;13.532;2023-05-29T08:50:35;4.95;;;1.95;;
52480;SDS011;38393;52.404;13.532;2023-05-29T08:53:01;2.70;;;1.83;;
52480;SDS011;38393;52.404;13.532;2023-05-29T08:55:26;2.45;;;1.85;;
52480;SDS011;38393;52.404;13.532;2023-05-29T08:57:53;3.67;;;2.13;;
52480;SDS011;38393;52.404;13.532;2023-05-29T09:00:18;2.63;;;1.58;;
52480;SDS011;38393;52.404;13.532;2023-05-29T09:02:47;2.95;;;1.90;;
52480;SDS011;38393;52.404;13.532;2023-05-29T09:05:12;4.75;;;2.40;;
52480;SDS011;38393;52.404;13.532;2023-05-29T09:07:38;4.72;;;2.17;;
52480;SDS011;38393;52.404;13.532;2023-05-29T09:10:08;3.38;;;2.20;;
52480;SDS011;38393;52.404;13.532;2023-05-29T09:12:34;2.88;;;2.10;;
52480;SDS011;38393;52.404;13.532;2023-05-29T09:15:00;4.75;;;2.08;;
52480;SDS011;38393;52.404;13.532;2023-05-29T09:17:30;3.75;;;2.22;;
52480;SDS011;38393;52.404;13.532;2023-05-29T09:19:57;3.92;;;2.50;;
52480;SDS011;38393;52.404;13.532;2023-05-29T09:22:23;3.08;;;2.05;;
52480;SDS011;38393;52.404;13.532;2023-05-29T09:24:48;3.25;;;2.13;;
52480;SDS011;38393;52.404;13.532;2023-05-29T09:27:15;3.10;;;2.05;;
52480;SDS011;38393;52.404;13.532;2023-05-29T09:29:42;2.95;;;2.00;;
52480;SDS011;38393;52.404;13.532;2023-05-29T09:32:13;3.90;;;2.38;;
52480;SDS011;38393;52.404;13.532;2023-05-29T09:34:42;5.95;;;2.42;;
52480;SDS011;38393;52.404;13.532;2023-05-29T09:37:09;3.95;;;2.22;;
52480;SDS011;38393;52.404;13.532;2023-05-29T09:39:49;4.53;;;2.20;;
52480;SDS011;38393;52.404;13.532;2023-05-29T09:42:16;3.88;;;2.42;;
52480;SDS011;38393;52.404;13.532;2023-05-29T09:44:43;5.10;;;2.20;;
52480;SDS011;38393;52.404;13.532;2023-05-29T09:47:13;4.22;;;2.28;;
52480;SDS011;38393;52.404;13.532;2023-05-29T09:49:40;4.20;;;2.40;;
52480;SDS011;38393;52.404;13.532;2023-05-29T09:52:07;5.55;;;2.35;;
52480;SDS011;38393;52.404;13.532;2023-05-29T09:54:34;3.72;;;2.20;;
52480;SDS011;38393;52.404;13.532;2023-05-29T09:57:00;4.47;;;2.50;;
52480;SDS011;38393;52.404;13.532;2023-05-29T09:59:28;3.88;;;2.15;;
52480;SDS011;38393;52.404;13.532;2023-05-29T10:02:01;4.38;;;2.50;;
52480;SDS011;38393;52.404;13.532;2023-05-29T10:04:34;4.18;;;2.38;;
52480;SDS011;38393;52.404;13.532;2023-05-29T10:07:03;6.25;;;2.47;;
52480;SDS011;38393;52.404;13.532;2023-05-29T10:09:33;4.30;;;1.98;;
52480;SDS011;38393;52.404;13.532;2023-05-29T10:12:00;5.28;;;3.00;;
52480;SDS011;38393;52.404;13.532;2023-05-29T10:14:29;3.53;;;2.40;;
52480;SDS011;38393;52.404;13.532;2023-05-29T10:16:56;4.22;;;2.00;;
52480;SDS011;38393;52.404;13.532;2023-05-29T10:19:27;3.35;;;2.00;;
52480;SDS011;38393;52.404;13.532;2023-05-29T10:21:55;5.18;;;2.50;;
52480;SDS011;38393;52.404;13.532;2023-05-29T10:24:22;3.47;;;2.33;;
52480;SDS011;38393;52.404;13.532;2023-05-29T10:26:48;4.15;;;2.38;;
52480;SDS011;38393;52.404;13.532;2023-05-29T10:29:31;3.85;;;2.30;;
52480;SDS011;38393;52.404;13.532;2023-05-29T10:32:20;3.92;;;2.10;;
52480;SDS011;38393;52.404;13.532;2023-05-29T10:34:56;4.88;;;2.50;;
52480;SDS011;38393;52.404;13.532;2023-05-29T10:40:06;3.25;;;2.08;;
52480;SDS011;38393;52.404;13.532;2023-05-29T10:42:43;3.20;;;2.03;;
52480;SDS011;38393;52.404;13.532;2023-05-29T10:45:10;3.85;;;2.20;;
52480;SDS011;38393;52.404;13.532;2023-05-29T10:47:37;3.67;;;2.10;;
52480;SDS011;38393;52.404;13.532;2023-05-29T10:50:04;4.57;;;2.25;;
52480;SDS011;38393;52.404;13.532;2023-05-29T10:52:30;4.80;;;2.85;;
52480;SDS011;38393;52.404;13.532;2023-05-29T10:54:56;3.38;;;2.40;;
52480;SDS011;38393;52.404;13.532;2023-05-29T10:57:22;5.22;;;2.80;;
52480;SDS011;38393;52.404;13.532;2023-05-29T11:02:36;4.57;;;2.00;;
52480;SDS011;38393;52.404;13.532;2023-05-29T11:05:21;4.25;;;2.30;;
52480;SDS011;38393;52.404;13.532;2023-05-29T11:07:53;3.92;;;2.35;;
52480;SDS011;38393;52.404;13.532;2023-05-29T11:13:33;3.95;;;2.30;;
52480;SDS011;38393;52.404;13.532;2023-05-29T11:16:10;6.88;;;2.30;;
52480;SDS011;38393;52.404;13.532;2023-05-29T11:18:54;4.53;;;2.22;;
52480;SDS011;38393;52.404;13.532;2023-05-29T11:24:24;4.35;;;2.35;;
52480;SDS011;38393;52.404;13.532;2023-05-29T11:26:51;4.05;;;2.10;;
52480;SDS011;38393;52.404;13.532;2023-05-29T11:29:21;4.22;;;2.40;;
52480;SDS011;38393;52.404;13.532;2023-05-29T11:31:58;3.45;;;2.35;;
52480;SDS011;38393;52.404;13.532;2023-05-29T11:34:27;5.13;;;2.53;;
52480;SDS011;38393;52.404;13.532;2023-05-29T11:36:54;3.58;;;2.08;;
52480;SDS011;38393;52.404;13.532;2023-05-29T11:39:21;3.85;;;2.40;;
52480;SDS011;38393;52.404;13.532;2023-05-29T11:41:49;3.95;;;2.00;;
52480;SDS011;38393;52.404;13.532;2023-05-29T11:44:16;4.53;;;2.25;;
52480;SDS011;38393;52.404;13.532;2023-05-29T11:46:41;4.50;;;2.42;;
52480;SDS011;38393;52.404;13.532;2023-05-29T11:49:07;5.07;;;2.35;;
52480;SDS011;38393;52.404;13.532;2023-05-29T11:51:32;4.00;;;2.17;;
52480;SDS011;38393;52.404;13.532;2023-05-29T11:53:58;3.13;;;2.00;;
52480;SDS011;38393;52.404;13.532;2023-05-29T11:56:26;6.07;;;2.13;;
52480;SDS011;38393;52.404;13.532;2023-05-29T11:58:53;3.33;;;2.10;;
52480;SDS011;38393;52.404;13.532;2023-05-29T12:01:21;2.97;;;2.20;;
52480;SDS011;38393;52.404;13.532;2023-05-29T12:03:48;5.90;;;2.42;;
52480;SDS011;38393;52.404;13.532;2023-05-29T12:06:14;4.70;;;2.75;;
52480;SDS011;38393;52.404;13.532;2023-05-29T12:08:40;4.35;;;2.47;;
52480;SDS011;38393;52.404;13.532;2023-05-29T12:11:06;3.38;;;2.00;;
52480;SDS011;38393;52.404;13.532;2023-05-29T12:13:31;4.28;;;2.30;;
52480;SDS011;38393;52.404;13.532;2023-05-29T12:15:58;3.20;;;2.10;;
52480;SDS011;38393;52.404;13.532;2023-05-29T12:18:29;4.75;;;2.35;;
52480;SDS011;38393;52.404;13.532;2023-05-29T12:21:01;2.55;;;1.90;;
52480;SDS011;38393;52.404;13.532;2023-05-29T12:23:28;2.80;;;2.00;;
52480;SDS011;38393;52.404;13.532;2023-05-29T12:25:54;5.38;;;2.28;;
52480;SDS011;38393;52.404;13.532;2023-05-29T12:28:20;3.13;;;1.80;;
52480;SDS011;38393;52.404;13.532;2023-05-29T12:30:46;3.75;;;2.15;;
52480;SDS011;38393;52.404;13.532;2023-05-29T12:33:27;5.55;;;2.33;;
52480;SDS011;38393;52.404;13.532;2023-05-29T12:35:54;3.88;;;2.20;;
52480;SDS011;38393;52.404;13.532;2023-05-29T12:38:25;8.82;;;2.67;;
52480;SDS011;38393;52.404;13.532;2023-05-29T12:40:52;2.90;;;1.92;;
52480;SDS011;38393;52.404;13.532;2023-05-29T12:43:18;4.82;;;2.17;;
52480;SDS011;38393;52.404;13.532;2023-05-29T12:45:44;3.85;;;2.10;;
52480;SDS011;38393;52.404;13.532;2023-05-29T12:48:09;3.85;;;1.98;;
52480;SDS011;38393;52.404;13.532;2023-05-29T12:50:39;4.15;;;2.25;;
52480;SDS011;38393;52.404;13.532;2023-05-29T12:53:12;3.20;;;1.83;;
52480;SDS011;38393;52.404;13.532;2023-05-29T12:55:39;3.67;;;1.83;;
52480;SDS011;38393;52.404;13.532;2023-05-29T12:58:08;3.17;;;1.95;;
52480;SDS011;38393;52.404;13.532;2023-05-29T13:00:38;6.25;;;2.30;;
52480;SDS011;38393;52.404;13.532;2023-05-29T13:03:05;4.72;;;2.20;;
52480;SDS011;38393;52.404;13.532;2023-05-29T13:05:31;7.00;;;2.30;;
52480;SDS011;38393;52.404;13.532;2023-05-29T13:07:57;4.32;;;2.08;;
52480;SDS011;38393;52.404;13.532;2023-05-29T13:10:23;5.47;;;2.00;;
52480;SDS011;38393;52.404;13.532;2023-05-29T13:12:52;4.72;;;2.20;;
52480;SDS011;38393;52.404;13.532;2023-05-29T13:15:20;3.58;;;2.10;;
52480;SDS011;38393;52.404;13.532;2023-05-29T13:17:47;3.40;;;1.92;;
52480;SDS011;38393;52.404;13.532;2023-05-29T13:20:13;3.63;;;2.50;;
52480;SDS011;38393;52.404;13.532;2023-05-29T13:22:39;3.60;;;2.22;;
52480;SDS011;38393;52.404;13.532;2023-05-29T13:25:06;4.70;;;2.50;;
52480;SDS011;38393;52.404;13.532;2023-05-29T13:27:34;5.80;;;2.70;;
52480;SDS011;38393;52.404;13.532;2023-05-29T13:30:04;4.00;;;2.17;;
52480;SDS011;38393;52.404;13.532;2023-05-29T13:32:30;5.75;;;3.00;;
52480;SDS011;38393;52.404;13.532;2023-05-29T13:34:56;2.70;;;2.03;;
52480;SDS011;38393;52.404;13.532;2023-05-29T13:37:21;7.07;;;2.28;;
52480;SDS011;38393;52.404;13.532;2023-05-29T13:39:47;4.25;;;2.13;;
52480;SDS011;38393;52.404;13.532;2023-05-29T13:42:13;5.22;;;2.05;;
52480;SDS011;38393;52.404;13.532;2023-05-29T13:44:38;3.80;;;2.17;;
52480;SDS011;38393;52.404;13.532;2023-05-29T13:47:07;4.60;;;2.10;;
52480;SDS011;38393;52.404;13.532;2023-05-29T13:49:33;4.40;;;1.85;;
52480;SDS011;38393;52.404;13.532;2023-05-29T13:51:59;2.75;;;1.90;;
52480;SDS011;38393;52.404;13.532;2023-05-29T13:54:25;4.50;;;2.30;;
52480;SDS011;38393;52.404;13.532;2023-05-29T13:56:52;3.00;;;2.08;;
52480;SDS011;38393;52.404;13.532;2023-05-29T13:59:18;3.53;;;2.13;;
52480;SDS011;38393;52.404;13.532;2023-05-29T14:01:43;4.65;;;2.17;;
52480;SDS011;38393;52.404;13.532;2023-05-29T14:04:09;4.43;;;2.22;;
52480;SDS011;38393;52.404;13.532;2023-05-29T14:06:34;4.35;;;1.80;;
52480;SDS011;38393;52.404;13.532;2023-05-29T14:09:01;5.50;;;2.30;;
52480;SDS011;38393;52.404;13.532;2023-05-29T14:11:27;3.35;;;1.75;;
52480;SDS011;38393;52.404;13.532;2023-05-29T14:13:53;3.17;;;2.00;;
52480;SDS011;38393;52.404;13.532;2023-05-29T14:16:18;4.63;;;1.98;;
52480;SDS011;38393;52.404;13.532;2023-05-29T14:18:44;2.92;;;1.80;;
52480;SDS011;38393;52.404;13.532;2023-05-29T14:21:09;4.43;;;2.00;;
52480;SDS011;38393;52.404;13.532;2023-05-29T14:23:35;3.20;;;1.95;;
52480;SDS011;38393;52.404;13.532;2023-05-29T14:26:01;3.95;;;2.30;;
52480;SDS011;38393;52.404;13.532;2023-05-29T14:28:27;3.55;;;1.92;;
52480;SDS011;38393;52.404;13.532;2023-05-29T14:30:52;2.72;;;2.03;;
52480;SDS011;38393;52.404;13.532;2023-05-29T14:33:18;6.18;;;2.20;;
52480;SDS011;38393;52.404;13.532;2023-05-29T14:35:44;4.70;;;2.22;;
52480;SDS011;38393;52.404;13.532;2023-05-29T14:38:09;6.50;;;2.20;;
52480;SDS011;38393;52.404;13.532;2023-05-29T14:40:34;4.75;;;2.30;;
52480;SDS011;38393;52.404;13.532;2023-05-29T14:43:01;4.05;;;1.90;;
52480;SDS011;38393;52.404;13.532;2023-05-29T14:45:26;4.65;;;1.90;;
52480;SDS011;38393;52.404;13.532;2023-05-29T14:47:52;5.28;;;2.00;;
52480;SDS011;38393;52.404;13.532;2023-05-29T14:50:17;4.28;;;2.17;;